Time,TemperatureF,DewpointF,PressureIn,WindDirection,WindDirectionDegrees,WindSpeedMPH,WindSpeedGustMPH,Humidity,HourlyPrecipIn,Conditions,Clouds,dailyrainin,SolarRadiationWatts/m^2,SoftwareType,DateUTC
2013-06-12 00:03:00,63.6,58.7,29.94,NNW,329,0.0,0.0,84,0.00,RA,,0.00,0.0,WeatherDisplay:10.37,2013-06-12 05:03:00,
2013-06-12 00:08:00,64.1,58.5,29.93,NNW,329,0.5,2.3,82,0.00,RA,,0.00,0.0,WeatherDisplay:10.37,2013-06-12 05:08:00,
2013-06-12 00:13:00,63.8,58.5,29.94,NNW,330,0.7,3.0,83,0.00,SCT,,0.00,0.0,WeatherDisplay:10.37,2013-06-12 05:13:00,
2013-06-12 00:18:00,63.7,59.1,29.94,NNW,327,0.0,1.0,85,0.00,SCT,,0.00,0.0,WeatherDisplay:10.37,2013-06-12 05:18:00,
2013-06-12 00:23:00,64.0,59.4,29.94,NNW,327,0.0,0.0,85,0.00,SCT,,0.00,0.0,WeatherDisplay:10.37,2013-06-12 05:23:00,
2013-06-12 00:28:00,63.4,58.8,29.94,NNW,328,0.0,0.0,85,0.00,SCT,,0.00,0.0,WeatherDisplay:10.37,2013-06-12 05:28:00,
2013-06-12 00:33:00,63.4,59.1,29.94,NNW,328,1.2,2.3,86,0.00,SCT,,0.00,0.0,WeatherDisplay:10.37,2013-06-12 05:33:00,
2013-06-12 00:38:00,63.5,57.9,29.93,NNW,328,0.0,0.0,82,0.00,SCT,,0.00,0.0,WeatherDisplay:10.37,2013-06-12 05:38:00,
2013-06-12 00:43:00,63.9,59.0,29.93,NNW,328,0.0,0.0,84,0.00,SCT,,0.00,0.0,WeatherDisplay:10.37,2013-06-12 05:43:00,
2013-06-12 00:48:00,63.9,59.0,29.93,NNW,328,0.0,0.0,84,0.00,SCT,,0.00,0.0,WeatherDisplay:10.37,2013-06-12 05:48:00,
2013-06-12 00:53:00,64.7,55.1,29.93,NNW,328,0.5,2.0,71,0.00,SCT,,0.00,0.0,WeatherDisplay:10.37,2013-06-12 05:53:00,
2013-06-12 00:58:00,65.1,57.7,29.95,NNW,328,0.5,2.0,77,0.00,SCT,,0.00,0.0,WeatherDisplay:10.37,2013-06-12 05:58:00,
2013-06-12 01:03:00,64.4,59.5,29.96,NNW,328,0.1,1.2,84,0.00,BKN,,0.00,0.0,WeatherDisplay:10.37,2013-06-12 06:03:00,
2013-06-12 01:08:00,63.9,59.0,29.97,NNW,328,0.0,0.0,84,0.00,BKN,,0.00,0.0,WeatherDisplay:10.37,2013-06-12 06:08:00,
2013-06-12 01:13:00,64.2,58.6,29.98,NNW,328,0.7,2.3,82,0.00,BKN,,0.00,0.0,WeatherDisplay:10.37,2013-06-12 06:13:00,
2013-06-12 01:18:00,64.3,57.6,29.98,NNW,338,1.5,3.5,79,0.00,BKN,,0.01,0.0,WeatherDisplay:10.37,2013-06-12 06:18:00,
2013-06-12 01:23:00,62.9,57.3,29.96,NNE,32,0.7,1.2,82,0.01,RA,,0.01,0.0,WeatherDisplay:10.37,2013-06-12 06:23:00,
2013-06-12 01:28:00,61.6,56.4,29.95,NNE,32,0.5,2.0,83,0.02,RA,,0.02,0.0,WeatherDisplay:10.37,2013-06-12 06:28:00,
2013-06-12 01:33:00,61.8,57.6,29.96,NNW,340,1.5,4.0,86,0.02,RA,,0.02,0.0,WeatherDisplay:10.37,2013-06-12 06:33:00,
2013-06-12 01:38:00,61.9,56.7,29.94,NE,45,1.8,3.5,83,0.02,BKN,,0.02,0.0,WeatherDisplay:10.37,2013-06-12 06:38:00,
2013-06-12 01:43:00,62.2,56.6,29.93,ENE,57,0.5,2.3,82,0.02,BKN,,0.02,0.0,WeatherDisplay:10.37,2013-06-12 06:43:00,
2013-06-12 01:48:00,61.8,55.9,29.94,NW,317,1.0,5.0,81,0.02,BKN,,0.02,0.0,WeatherDisplay:10.37,2013-06-12 06:48:00,
2013-06-12 01:53:00,62.2,57.3,29.94,NNW,327,0.2,1.2,84,0.02,BKN,,0.02,0.0,WeatherDisplay:10.37,2013-06-12 06:53:00,
2013-06-12 01:58:00,60.6,57.0,29.92,NNW,330,0.1,1.0,88,0.03,RA,,0.03,0.0,WeatherDisplay:10.37,2013-06-12 06:58:00,
2013-06-12 02:03:00,60.5,56.6,29.92,NNW,346,0.1,1.0,87,0.03,-RA,,0.03,0.0,WeatherDisplay:10.37,2013-06-12 07:03:00,
2013-06-12 02:08:00,60.4,57.1,29.91,NNW,348,0.3,1.0,89,0.03,-RA,,0.03,0.0,WeatherDisplay:10.37,2013-06-12 07:08:00,
2013-06-12 02:13:00,59.6,57.0,29.90,East,80,0.5,1.2,91,0.03,-RA,,0.03,0.0,WeatherDisplay:10.37,2013-06-12 07:13:00,
2013-06-12 02:18:00,59.6,56.4,29.91,NNE,23,0.4,1.2,89,0.02,-RA,,0.03,0.0,WeatherDisplay:10.37,2013-06-12 07:18:00,
2013-06-12 02:23:00,60.5,56.9,29.91,NE,44,0.0,1.2,88,0.02,-RA,,0.03,0.0,WeatherDisplay:10.37,2013-06-12 07:23:00,
2013-06-12 02:28:00,61.6,55.4,29.92,NNE,14,0.2,1.2,80,0.01,-RA,,0.03,0.0,WeatherDisplay:10.37,2013-06-12 07:28:00,
2013-06-12 02:33:00,62.1,56.9,29.92,North,5,1.4,2.3,83,0.01,-RA,,0.03,0.0,WeatherDisplay:10.37,2013-06-12 07:33:00,
2013-06-12 02:38:00,61.7,56.8,29.92,North,360,0.4,2.0,84,0.01,-RA,,0.03,0.0,WeatherDisplay:10.37,2013-06-12 07:38:00,
2013-06-12 02:43:00,61.5,56.3,29.92,North,360,0.0,1.2,83,0.01,-RA,,0.03,0.0,WeatherDisplay:10.37,2013-06-12 07:43:00,
2013-06-12 02:48:00,61.3,56.8,29.92,North,5,1.3,3.5,85,0.01,-RA,,0.03,0.0,WeatherDisplay:10.37,2013-06-12 07:48:00,
2013-06-12 02:53:00,61.6,56.4,29.92,North,5,0.7,2.0,83,0.01,-RA,,0.03,0.0,WeatherDisplay:10.37,2013-06-12 07:53:00,
2013-06-12 02:58:00,61.4,56.8,29.92,North,355,2.4,3.5,85,0.00,-RA,,0.03,0.0,WeatherDisplay:10.37,2013-06-12 07:58:00,
2013-06-12 03:03:00,60.9,56.7,29.91,North,355,1.3,4.0,86,0.00,OVC,,0.03,0.0,WeatherDisplay:10.37,2013-06-12 08:03:00,
2013-06-12 03:08:00,61.2,56.0,29.91,NNE,19,2.7,6.0,83,0.00,OVC,,0.03,0.0,WeatherDisplay:10.37,2013-06-12 08:08:00,
2013-06-12 03:13:00,61.4,56.2,29.91,North,360,1.2,3.5,83,0.00,OVC,,0.03,0.0,WeatherDisplay:10.37,2013-06-12 08:13:00,
2013-06-12 03:18:00,61.3,55.8,29.91,NNE,13,2.1,3.5,82,0.00,OVC,,0.03,0.0,WeatherDisplay:10.37,2013-06-12 08:18:00,
2013-06-12 03:23:00,61.1,55.9,29.91,North,360,0.0,2.3,83,0.00,OVC,,0.03,0.0,WeatherDisplay:10.37,2013-06-12 08:23:00,
2013-06-12 03:28:00,61.2,55.0,29.91,NNE,14,1.0,2.3,80,0.00,OVC,,0.03,0.0,WeatherDisplay:10.37,2013-06-12 08:28:00,
2013-06-12 03:33:00,61.6,54.7,29.91,NNE,28,0.5,3.5,78,0.00,OVC,,0.03,0.0,WeatherDisplay:10.37,2013-06-12 08:33:00,
2013-06-12 03:38:00,62.2,54.5,29.91,North,360,0.8,2.0,76,0.00,OVC,,0.03,0.0,WeatherDisplay:10.37,2013-06-12 08:38:00,
2013-06-12 03:43:00,62.6,54.2,29.91,NNE,19,2.9,8.1,74,0.00,OVC,,0.03,0.0,WeatherDisplay:10.37,2013-06-12 08:43:00,
2013-06-12 03:48:00,63.0,53.8,29.91,NE,50,1.4,4.6,72,0.00,OVC,,0.03,0.0,WeatherDisplay:10.37,2013-06-12 08:48:00,
2013-06-12 03:53:00,63.3,53.7,29.91,North,355,1.9,3.5,71,0.00,OVC,,0.03,0.0,WeatherDisplay:10.37,2013-06-12 08:53:00,
2013-06-12 03:58:00,63.5,53.1,29.91,North,5,2.0,4.0,69,0.00,OVC,,0.03,0.0,WeatherDisplay:10.37,2013-06-12 08:58:00,
2013-06-12 04:03:00,63.8,52.6,29.91,ENE,62,2.3,4.0,67,0.00,BKN,,0.03,0.0,WeatherDisplay:10.37,2013-06-12 09:03:00,
2013-06-12 04:08:00,63.9,52.7,29.91,NE,50,0.1,2.3,67,0.00,BKN,,0.03,0.0,WeatherDisplay:10.37,2013-06-12 09:08:00,
2013-06-12 04:13:00,63.7,53.3,29.92,NE,42,0.6,2.3,69,0.00,BKN,,0.03,0.0,WeatherDisplay:10.37,2013-06-12 09:13:00,
2013-06-12 04:18:00,62.9,54.1,29.92,East,84,0.9,3.0,73,0.01,RA,,0.04,0.0,WeatherDisplay:10.37,2013-06-12 09:18:00,
2013-06-12 04:23:00,62.0,54.3,29.92,ENE,67,0.7,2.3,76,0.01,RA,,0.04,0.0,WeatherDisplay:10.37,2013-06-12 09:23:00,
2013-06-12 04:28:00,61.7,54.8,29.92,NE,47,0.0,1.0,78,0.01,BKN,,0.04,0.0,WeatherDisplay:10.37,2013-06-12 09:28:00,
2013-06-12 04:33:00,61.5,54.6,29.92,NE,48,0.2,1.2,78,0.01,BKN,,0.04,0.0,WeatherDisplay:10.37,2013-06-12 09:33:00,
2013-06-12 04:38:00,60.9,55.4,29.93,NE,48,0.0,0.0,82,0.01,BKN,,0.04,0.0,WeatherDisplay:10.37,2013-06-12 09:38:00,
2013-06-12 04:43:00,60.3,55.8,29.93,NE,49,0.0,0.0,85,0.01,BKN,,0.04,0.0,WeatherDisplay:10.37,2013-06-12 09:43:00,
2013-06-12 04:48:00,59.6,54.8,29.93,SSE,153,0.0,0.0,84,0.01,BKN,,0.04,0.0,WeatherDisplay:10.37,2013-06-12 09:48:00,
2013-06-12 04:53:00,59.3,55.7,29.93,SSE,153,0.0,0.0,88,0.01,BKN,,0.04,0.0,WeatherDisplay:10.37,2013-06-12 09:53:00,
2013-06-12 04:58:00,58.7,56.1,29.90,SSE,153,0.1,1.2,91,0.01,BKN,,0.04,0.0,WeatherDisplay:10.37,2013-06-12 09:58:00,
2013-06-12 05:03:00,58.9,55.0,29.92,South,182,1.9,4.0,87,0.01,-RA,,0.04,0.0,WeatherDisplay:10.37,2013-06-12 10:03:00,
2013-06-12 05:08:00,59.6,55.1,29.91,South,184,0.0,0.0,85,0.02,-RA,,0.05,0.0,WeatherDisplay:10.37,2013-06-12 10:08:00,
2013-06-12 05:13:00,59.2,55.6,29.90,South,184,0.0,0.0,88,0.02,-RA,,0.05,0.0,WeatherDisplay:10.37,2013-06-12 10:13:00,
2013-06-12 05:18:00,58.2,55.6,29.89,South,184,0.1,1.2,91,0.01,-RA,,0.05,0.0,WeatherDisplay:10.37,2013-06-12 10:18:00,
2013-06-12 05:23:00,58.2,55.3,29.90,South,191,0.1,1.2,90,0.01,-RA,,0.05,5.0,WeatherDisplay:10.37,2013-06-12 10:23:00,
2013-06-12 05:28:00,58.9,55.0,29.90,South,173,0.2,1.0,87,0.01,-RA,,0.05,5.0,WeatherDisplay:10.37,2013-06-12 10:28:00,
2013-06-12 05:33:00,59.3,55.4,29.90,North,5,0.9,3.0,87,0.01,-RA,,0.05,5.0,WeatherDisplay:10.37,2013-06-12 10:33:00,
2013-06-12 05:38:00,59.8,54.6,29.90,North,360,0.1,1.2,83,0.01,-RA,,0.05,7.0,WeatherDisplay:10.37,2013-06-12 10:38:00,
2013-06-12 05:43:00,60.2,55.0,29.90,North,360,0.2,1.0,83,0.01,-RA,,0.05,12.0,WeatherDisplay:10.37,2013-06-12 10:43:00,
2013-06-12 05:48:00,60.2,53.7,29.90,NE,45,0.6,3.0,79,0.01,-RA,,0.05,18.0,WeatherDisplay:10.37,2013-06-12 10:48:00,
2013-06-12 05:53:00,60.0,54.8,29.90,NE,38,0.1,1.2,83,0.01,-RA,,0.05,23.0,WeatherDisplay:10.37,2013-06-12 10:53:00,
2013-06-12 05:58:00,60.2,53.7,29.89,NNE,16,1.2,4.6,79,0.01,-RA,,0.05,25.0,WeatherDisplay:10.37,2013-06-12 10:58:00,
2013-06-12 06:03:00,60.8,53.9,29.89,NNE,14,0.5,2.3,78,0.01,-RA,,0.05,28.0,WeatherDisplay:10.37,2013-06-12 11:03:00,
2013-06-12 06:08:00,60.9,54.0,29.90,NNE,14,0.8,1.2,78,0.00,-RA,,0.05,30.0,WeatherDisplay:10.37,2013-06-12 11:08:00,
2013-06-12 06:13:00,60.9,54.0,29.90,North,5,0.0,2.3,78,0.00,-RA,,0.05,32.0,WeatherDisplay:10.37,2013-06-12 11:13:00,
2013-06-12 06:18:00,59.9,55.4,29.91,North,5,0.0,0.0,85,0.00,-RA,,0.05,32.0,WeatherDisplay:10.37,2013-06-12 11:18:00,
2013-06-12 06:23:00,59.5,55.3,29.91,North,5,0.0,0.0,86,0.00,-RA,,0.05,32.0,WeatherDisplay:10.37,2013-06-12 11:23:00,
2013-06-12 06:28:00,59.0,54.8,29.91,North,5,0.0,0.0,86,0.00,-RA,,0.05,28.0,WeatherDisplay:10.37,2013-06-12 11:28:00,
2013-06-12 06:33:00,59.2,55.0,29.91,North,5,0.0,0.0,86,0.00,-RA,,0.05,23.0,WeatherDisplay:10.37,2013-06-12 11:33:00,
2013-06-12 06:38:00,59.5,55.6,29.91,North,5,0.1,1.0,87,0.00,-RA,,0.05,18.0,WeatherDisplay:10.37,2013-06-12 11:38:00,
2013-06-12 06:43:00,59.6,55.4,29.92,North,5,0.0,0.0,86,0.00,-RA,,0.05,19.0,WeatherDisplay:10.37,2013-06-12 11:43:00,
2013-06-12 06:48:00,59.3,55.4,29.92,North,5,0.0,0.0,87,0.00,-RA,,0.05,19.0,WeatherDisplay:10.37,2013-06-12 11:48:00,
2013-06-12 06:53:00,59.2,55.3,29.92,North,5,0.5,1.2,87,0.00,-RA,,0.05,26.0,WeatherDisplay:10.37,2013-06-12 11:53:00,
2013-06-12 06:58:00,59.3,55.4,29.92,North,5,0.7,2.3,87,0.00,-RA,,0.05,32.0,WeatherDisplay:10.37,2013-06-12 11:58:00,
2013-06-12 07:03:00,59.6,55.4,29.92,NNE,14,2.8,4.0,86,0.00,BKN,,0.05,28.0,WeatherDisplay:10.37,2013-06-12 12:03:00,
2013-06-12 07:08:00,59.9,55.7,29.91,North,360,1.1,3.5,86,0.00,BKN,,0.05,26.0,WeatherDisplay:10.37,2013-06-12 12:08:00,
2013-06-12 07:13:00,60.3,56.1,29.91,North,360,0.0,0.0,86,0.00,BKN,,0.05,26.0,WeatherDisplay:10.37,2013-06-12 12:13:00,
2013-06-12 07:18:00,60.3,56.1,29.91,NNW,329,2.7,4.0,86,0.00,BKN,,0.05,28.0,WeatherDisplay:10.37,2013-06-12 12:18:00,
2013-06-12 07:23:00,60.2,56.3,29.92,NNW,331,0.2,1.2,87,0.00,BKN,,0.05,23.0,WeatherDisplay:10.37,2013-06-12 12:23:00,
2013-06-12 07:28:00,60.2,56.6,29.92,NNW,331,0.9,2.3,88,0.00,BKN,,0.05,21.0,WeatherDisplay:10.37,2013-06-12 12:28:00,
2013-06-12 07:33:00,60.2,55.7,29.92,NNE,15,1.3,3.5,85,0.00,BKN,,0.05,19.0,WeatherDisplay:10.37,2013-06-12 12:33:00,
2013-06-12 07:38:00,60.5,56.0,29.93,NW,319,2.5,4.0,85,0.00,BKN,,0.05,16.0,WeatherDisplay:10.37,2013-06-12 12:38:00,
2013-06-12 07:43:00,60.4,56.2,29.95,NW,304,2.0,3.5,86,0.01,RA,,0.06,18.0,WeatherDisplay:10.37,2013-06-12 12:43:00,
2013-06-12 07:48:00,60.3,55.4,29.95,WNW,300,0.4,2.3,84,0.01,RA,,0.06,30.0,WeatherDisplay:10.37,2013-06-12 12:48:00,
2013-06-12 07:53:00,60.5,55.6,29.95,NW,306,0.7,2.3,84,0.01,BKN,,0.06,40.0,WeatherDisplay:10.37,2013-06-12 12:53:00,
2013-06-12 07:58:00,60.6,55.1,29.96,WNW,286,1.6,3.5,82,0.01,BKN,,0.06,44.0,WeatherDisplay:10.37,2013-06-12 12:58:00,
2013-06-12 08:03:00,60.4,55.2,29.97,WNW,288,1.4,4.6,83,0.01,OVC,,0.06,54.0,WeatherDisplay:10.37,2013-06-12 13:03:00,
2013-06-12 08:08:00,60.7,55.2,29.97,NW,306,2.6,5.0,82,0.01,OVC,,0.06,51.0,WeatherDisplay:10.37,2013-06-12 13:08:00,
2013-06-12 08:13:00,60.9,55.7,29.98,NW,311,2.0,5.0,83,0.01,OVC,,0.06,44.0,WeatherDisplay:10.37,2013-06-12 13:13:00,
2013-06-12 08:18:00,61.0,55.5,29.98,NW,304,2.7,4.0,82,0.01,OVC,,0.06,46.0,WeatherDisplay:10.37,2013-06-12 13:18:00,
2013-06-12 08:23:00,61.3,55.8,29.97,WNW,290,0.6,2.3,82,0.01,OVC,,0.06,49.0,WeatherDisplay:10.37,2013-06-12 13:23:00,
2013-06-12 08:28:00,61.4,55.9,29.97,NW,309,0.6,3.5,82,0.01,OVC,,0.06,51.0,WeatherDisplay:10.37,2013-06-12 13:28:00,
2013-06-12 08:33:00,61.2,56.0,29.96,NW,314,0.7,2.3,83,0.01,OVC,,0.06,44.0,WeatherDisplay:10.37,2013-06-12 13:33:00,
2013-06-12 08:38:00,61.1,55.9,29.96,NW,318,0.7,3.0,83,0.01,OVC,,0.06,40.0,WeatherDisplay:10.37,2013-06-12 13:38:00,
2013-06-12 08:43:00,60.9,55.7,29.95,North,9,0.6,2.3,83,0.00,OVC,,0.06,37.0,WeatherDisplay:10.37,2013-06-12 13:43:00,
2013-06-12 08:48:00,60.9,56.0,29.94,North,355,1.0,3.5,84,0.00,OVC,,0.06,33.0,WeatherDisplay:10.37,2013-06-12 13:48:00,
2013-06-12 08:53:00,60.9,56.0,29.94,NW,325,0.6,2.3,84,0.00,OVC,,0.06,30.0,WeatherDisplay:10.37,2013-06-12 13:53:00,
2013-06-12 08:58:00,60.9,56.0,29.94,NW,320,0.5,2.3,84,0.00,OVC,,0.06,28.0,WeatherDisplay:10.37,2013-06-12 13:58:00,
2013-06-12 09:03:00,60.9,56.0,29.94,NW,320,0.8,2.0,84,0.00,OVC,,0.06,26.0,WeatherDisplay:10.37,2013-06-12 14:03:00,
2013-06-12 09:08:00,61.0,55.8,29.94,North,360,2.0,3.5,83,0.00,OVC,,0.06,25.0,WeatherDisplay:10.37,2013-06-12 14:08:00,
2013-06-12 09:13:00,60.9,55.7,29.93,North,360,0.4,2.3,83,0.00,OVC,,0.06,26.0,WeatherDisplay:10.37,2013-06-12 14:13:00,
2013-06-12 09:18:00,60.7,55.8,29.93,North,9,1.7,3.5,84,0.00,OVC,,0.06,30.0,WeatherDisplay:10.37,2013-06-12 14:18:00,
2013-06-12 09:23:00,60.6,55.7,29.92,NNE,13,1.8,3.5,84,0.00,OVC,,0.06,33.0,WeatherDisplay:10.37,2013-06-12 14:23:00,
2013-06-12 09:28:00,60.6,55.7,29.92,North,5,1.0,3.5,84,0.00,OVC,,0.06,35.0,WeatherDisplay:10.37,2013-06-12 14:28:00,
2013-06-12 09:33:00,60.5,56.3,29.92,North,355,1.4,3.0,86,0.00,OVC,,0.06,39.0,WeatherDisplay:10.37,2013-06-12 14:33:00,
2013-06-12 09:38:00,60.3,56.1,29.92,NNE,13,1.0,2.3,86,0.00,OVC,,0.06,40.0,WeatherDisplay:10.37,2013-06-12 14:38:00,
2013-06-12 09:43:00,60.0,56.1,29.92,North,355,2.5,4.0,87,0.00,OVC,,0.06,40.0,WeatherDisplay:10.37,2013-06-12 14:43:00,
2013-06-12 09:48:00,59.8,56.2,29.91,NNE,20,1.2,4.6,88,0.01,RA,,0.07,40.0,WeatherDisplay:10.37,2013-06-12 14:48:00,
2013-06-12 09:53:00,59.7,55.2,29.91,NE,45,3.0,5.0,85,0.01,RA,,0.07,40.0,WeatherDisplay:10.37,2013-06-12 14:53:00,
2013-06-12 09:58:00,59.8,55.0,29.90,NE,51,3.0,5.0,84,0.01,OVC,,0.08,40.0,WeatherDisplay:10.37,2013-06-12 14:58:00,
2013-06-12 10:03:00,59.6,55.1,29.88,NE,42,5.1,8.1,85,0.02,-RA,,0.08,42.0,WeatherDisplay:10.37,2013-06-12 15:03:00,
2013-06-12 10:08:00,59.3,55.4,29.87,ENE,75,4.6,8.1,87,0.02,-RA,,0.08,42.0,WeatherDisplay:10.37,2013-06-12 15:08:00,
2013-06-12 10:13:00,59.3,55.1,29.86,NE,45,5.8,8.1,86,0.02,-RA,,0.08,44.0,WeatherDisplay:10.37,2013-06-12 15:13:00,
2013-06-12 10:18:00,59.5,55.3,29.87,NNE,21,1.2,3.5,86,0.02,-RA,,0.08,46.0,WeatherDisplay:10.37,2013-06-12 15:18:00,
2013-06-12 10:23:00,59.6,55.4,29.87,NE,51,1.8,3.5,86,0.03,-RA,,0.09,46.0,WeatherDisplay:10.37,2013-06-12 15:23:00,
2013-06-12 10:28:00,59.5,55.3,29.88,ENE,73,0.9,3.5,86,0.03,-RA,,0.09,47.0,WeatherDisplay:10.37,2013-06-12 15:28:00,
2013-06-12 10:33:00,59.8,55.3,29.89,North,11,2.0,4.0,85,0.03,-RA,,0.09,47.0,WeatherDisplay:10.37,2013-06-12 15:33:00,
2013-06-12 10:38:00,59.8,55.3,29.89,North,355,1.2,3.5,85,0.03,-RA,,0.09,44.0,WeatherDisplay:10.37,2013-06-12 15:38:00,
2013-06-12 10:44:00,59.2,56.0,29.89,NNE,13,1.2,3.5,89,0.03,-RA,,0.09,39.0,WeatherDisplay:10.37,2013-06-12 15:44:00,
2013-06-12 10:49:00,59.1,55.9,29.90,North,355,1.7,3.5,89,0.02,-RA,,0.09,39.0,WeatherDisplay:10.37,2013-06-12 15:49:00,
2013-06-12 10:55:00,59.3,55.7,29.89,NE,46,2.0,3.5,88,0.03,-RA,,0.10,40.0,WeatherDisplay:10.37,2013-06-12 15:55:00,
2013-06-12 11:00:00,59.0,55.8,29.87,East,84,2.5,6.0,89,0.02,-RA,,0.10,51.0,WeatherDisplay:10.37,2013-06-12 16:00:00,
2013-06-12 11:05:00,58.9,55.7,29.88,NNE,17,0.8,5.8,89,0.03,-RA,,0.11,67.0,WeatherDisplay:10.37,2013-06-12 16:05:00,
2013-06-12 11:10:00,59.3,56.1,29.89,NW,325,1.5,3.5,89,0.03,-RA,,0.11,83.0,WeatherDisplay:10.37,2013-06-12 16:10:00,
2013-06-12 11:15:00,59.6,56.4,29.89,NNW,341,1.6,4.0,89,0.03,-RA,,0.11,98.0,WeatherDisplay:10.37,2013-06-12 16:15:00,
2013-06-12 11:20:00,59.7,56.8,29.89,NE,48,2.5,4.0,90,0.03,-RA,,0.11,100.0,WeatherDisplay:10.37,2013-06-12 16:20:00,
2013-06-12 11:25:00,59.6,56.4,29.88,ENE,60,2.6,8.1,89,0.02,-RA,,0.11,98.0,WeatherDisplay:10.37,2013-06-12 16:25:00,
2013-06-12 11:30:00,60.0,56.4,29.89,North,5,0.6,3.5,88,0.02,-RA,,0.11,118.0,WeatherDisplay:10.37,2013-06-12 16:30:00,
2013-06-12 11:35:00,60.0,56.4,29.89,NNE,27,0.9,2.3,88,0.02,-RA,,0.11,146.0,WeatherDisplay:10.37,2013-06-12 16:35:00,
2013-06-12 11:40:00,60.4,56.8,29.89,NNE,19,0.7,2.3,88,0.03,-RA,,0.12,148.0,WeatherDisplay:10.37,2013-06-12 16:40:00,
2013-06-12 11:45:00,60.8,57.2,29.90,North,360,0.9,2.3,88,0.03,-RA,,0.12,128.0,WeatherDisplay:10.37,2013-06-12 16:45:00,
2013-06-12 11:50:00,61.1,57.8,29.90,North,355,0.5,1.2,89,0.03,-RA,,0.12,142.0,WeatherDisplay:10.37,2013-06-12 16:50:00,
2013-06-12 11:55:00,61.4,57.8,29.90,North,350,0.3,3.5,88,0.02,-RA,,0.12,172.0,WeatherDisplay:10.37,2013-06-12 16:55:00,
2013-06-12 12:00:00,61.7,58.1,29.90,NNW,329,0.0,1.2,88,0.02,-RA,,0.12,258.0,WeatherDisplay:10.37,2013-06-12 17:00:00,
2013-06-12 12:05:00,62.0,58.1,29.91,NW,318,2.0,4.0,87,0.00,-RA,-RA,0.12,399.0,WeatherDisplay:10.37,2013-06-12 17:05:00,
2013-06-12 12:10:00,62.8,58.8,29.91,NW,317,0.0,3.0,87,0.00,-RA,-RA,0.12,527.0,WeatherDisplay:10.37,2013-06-12 17:10:00,
2013-06-12 12:15:00,63.6,59.3,29.91,NNW,345,1.0,5.0,86,0.00,-RA,-RA,0.12,592.0,WeatherDisplay:10.37,2013-06-12 17:15:00,
2013-06-12 12:20:00,64.4,59.8,29.91,NNW,329,1.0,5.0,85,0.00,-RA,-RA,0.12,392.0,WeatherDisplay:10.37,2013-06-12 17:20:00,
2013-06-12 12:25:00,65.2,59.9,29.90,NNW,339,1.0,6.0,83,0.00,-RA,-RA,0.12,431.0,WeatherDisplay:10.37,2013-06-12 17:25:00,
2013-06-12 12:30:00,65.7,60.1,29.90,North,351,3.0,7.0,82,0.00,-RA,-RA,0.12,566.0,WeatherDisplay:10.37,2013-06-12 17:30:00,
2013-06-12 12:35:00,66.5,61.5,29.90,NNW,346,2.0,6.0,84,0.00,-RA,-RA,0.12,599.0,WeatherDisplay:10.37,2013-06-12 17:35:00,
2013-06-12 12:40:00,66.9,60.9,29.91,NNW,327,1.0,5.0,81,0.00,-RA,-RA,0.12,504.0,WeatherDisplay:10.37,2013-06-12 17:40:00,
2013-06-12 12:45:00,67.5,61.5,29.91,NW,323,2.0,3.0,81,0.00,-RA,-RA,0.12,561.0,WeatherDisplay:10.37,2013-06-12 17:45:00,
2013-06-12 12:50:00,68.3,61.9,29.91,NNW,343,1.0,3.0,80,0.00,-RA,-RA,0.12,647.0,WeatherDisplay:10.37,2013-06-12 17:50:00,
2013-06-12 12:55:00,68.9,61.4,29.92,NNW,327,1.0,3.0,77,0.00,-RA,-RA,0.12,561.0,WeatherDisplay:10.37,2013-06-12 17:55:00,
2013-06-12 13:00:00,69.5,62.3,29.92,NW,319,1.0,3.0,78,0.00,-RA,-RA,0.12,520.0,WeatherDisplay:10.37,2013-06-12 18:00:00,
2013-06-12 13:06:00,70.3,61.6,29.92,NW,325,1.3,3.5,74,0.00,SCT,,0.12,617.0,WeatherDisplay:10.37,2013-06-12 18:06:00,
2013-06-12 13:11:00,70.6,62.3,29.92,NNE,21,2.8,4.6,75,0.00,SCT,,0.12,496.0,WeatherDisplay:10.37,2013-06-12 18:11:00,
2013-06-12 13:16:00,70.7,63.9,29.92,NW,310,2.1,5.0,79,0.00,SCT,,0.12,606.0,WeatherDisplay:10.37,2013-06-12 18:16:00,
2013-06-12 13:21:00,70.9,61.4,29.92,NNE,13,4.8,8.1,72,0.00,SCT,,0.12,529.0,WeatherDisplay:10.37,2013-06-12 18:21:00,
2013-06-12 13:26:00,70.8,61.7,29.91,NNW,340,2.9,6.0,73,0.00,SCT,,0.12,684.0,WeatherDisplay:10.37,2013-06-12 18:26:00,
2013-06-12 13:31:00,71.0,61.5,29.91,North,351,2.8,5.0,72,0.00,SCT,,0.12,540.0,WeatherDisplay:10.37,2013-06-12 18:31:00,
2013-06-12 13:36:00,71.3,62.2,29.91,NW,323,1.9,4.0,73,0.00,SCT,,0.12,427.0,WeatherDisplay:10.37,2013-06-12 18:36:00,
2013-06-12 13:41:00,71.6,62.5,29.91,North,360,3.0,7.0,73,0.00,SCT,,0.12,390.0,WeatherDisplay:10.37,2013-06-12 18:41:00,
2013-06-12 13:46:00,71.7,61.8,29.91,North,10,3.4,4.6,71,0.00,SCT,,0.12,364.0,WeatherDisplay:10.37,2013-06-12 18:46:00,
2013-06-12 13:51:00,71.9,61.6,29.91,NW,307,2.0,4.6,70,0.00,SCT,,0.12,288.0,WeatherDisplay:10.37,2013-06-12 18:51:00,
2013-06-12 13:56:00,71.7,61.0,29.91,NNW,329,3.3,6.0,69,0.00,SCT,,0.12,267.0,WeatherDisplay:10.37,2013-06-12 18:56:00,
2013-06-12 14:01:00,71.5,60.8,29.90,North,349,2.9,6.0,69,0.00,SCT,,0.12,309.0,WeatherDisplay:10.37,2013-06-12 19:01:00,
2013-06-12 14:06:00,71.7,61.0,29.90,North,11,2.1,5.0,69,0.00,FEW,,0.12,538.0,WeatherDisplay:10.37,2013-06-12 19:06:00,
2013-06-12 14:11:00,72.2,61.0,29.90,NNW,329,2.6,8.1,68,0.00,FEW,,0.12,480.0,WeatherDisplay:10.37,2013-06-12 19:11:00,
2013-06-12 14:16:00,72.8,61.2,29.90,North,351,3.0,7.0,67,0.00,FEW,,0.12,545.0,WeatherDisplay:10.37,2013-06-12 19:16:00,
2013-06-12 14:21:00,73.2,60.7,29.91,NNW,330,4.2,7.0,65,0.00,FEW,,0.12,536.0,WeatherDisplay:10.37,2013-06-12 19:21:00,
2013-06-12 14:26:00,73.4,60.0,29.91,NE,40,5.6,9.2,63,0.00,FEW,,0.12,411.0,WeatherDisplay:10.37,2013-06-12 19:26:00,
2013-06-12 14:31:00,73.3,59.0,29.91,NNW,345,4.5,7.0,61,0.00,FEW,,0.12,385.0,WeatherDisplay:10.37,2013-06-12 19:31:00,
2013-06-12 14:36:00,73.3,59.0,29.91,NNW,348,4.4,7.0,61,0.00,FEW,,0.12,338.0,WeatherDisplay:10.37,2013-06-12 19:36:00,
2013-06-12 14:41:00,73.0,58.8,29.91,North,355,6.0,9.2,61,0.00,FEW,,0.12,322.0,WeatherDisplay:10.37,2013-06-12 19:41:00,
2013-06-12 14:46:00,72.7,58.9,29.90,NNW,329,4.6,9.0,62,0.00,FEW,,0.12,385.0,WeatherDisplay:10.37,2013-06-12 19:46:00,
2013-06-12 14:51:00,72.7,60.3,29.90,NNW,338,6.0,12.7,65,0.00,FEW,,0.12,232.0,WeatherDisplay:10.37,2013-06-12 19:51:00,
2013-06-12 14:56:00,72.5,60.1,29.90,NNW,342,3.0,8.0,65,0.00,FEW,,0.12,199.0,WeatherDisplay:10.37,2013-06-12 19:56:00,
2013-06-12 15:01:00,72.1,59.7,29.91,NNW,332,6.0,10.4,65,0.00,FEW,,0.12,199.0,WeatherDisplay:10.37,2013-06-12 20:01:00,
2013-06-12 15:06:00,71.7,59.3,29.91,NNE,19,5.0,8.1,65,0.00,OVC,,0.12,160.0,WeatherDisplay:10.37,2013-06-12 20:06:00,
2013-06-12 15:11:00,71.4,58.6,29.91,North,349,4.3,8.0,64,0.00,OVC,,0.12,134.0,WeatherDisplay:10.37,2013-06-12 20:11:00,
2013-06-12 15:16:00,71.1,59.2,29.91,North,5,5.1,8.1,66,0.00,OVC,,0.12,192.0,WeatherDisplay:10.37,2013-06-12 20:16:00,
2013-06-12 15:21:00,71.0,59.9,29.91,North,360,4.4,7.0,68,0.00,OVC,,0.12,204.0,WeatherDisplay:10.37,2013-06-12 20:21:00,
2013-06-12 15:26:00,71.0,59.5,29.91,NNW,336,5.3,10.4,67,0.00,OVC,,0.12,214.0,WeatherDisplay:10.37,2013-06-12 20:26:00,
2013-06-12 15:31:00,70.9,59.4,29.91,NNW,340,5.5,8.1,67,0.00,OVC,,0.12,151.0,WeatherDisplay:10.37,2013-06-12 20:31:00,
2013-06-12 15:36:00,70.7,59.2,29.91,NW,321,3.9,8.0,67,0.00,OVC,,0.12,116.0,WeatherDisplay:10.37,2013-06-12 20:36:00,
2013-06-12 15:41:00,70.4,58.9,29.91,NW,306,4.0,8.0,67,0.00,OVC,,0.12,116.0,WeatherDisplay:10.37,2013-06-12 20:41:00,
2013-06-12 15:46:00,70.2,58.7,29.91,NNE,28,3.4,10.0,67,0.00,OVC,,0.12,127.0,WeatherDisplay:10.37,2013-06-12 20:46:00,
2013-06-12 15:51:00,70.0,58.1,29.91,North,11,5.2,9.0,66,0.00,OVC,,0.12,127.0,WeatherDisplay:10.37,2013-06-12 20:51:00,
2013-06-12 15:56:00,70.0,57.7,29.92,NNW,348,6.4,12.0,65,0.00,OVC,,0.12,118.0,WeatherDisplay:10.37,2013-06-12 20:56:00,
2013-06-12 16:01:00,70.0,58.1,29.92,NNW,331,2.4,8.1,66,0.00,OVC,,0.12,134.0,WeatherDisplay:10.37,2013-06-12 21:01:00,
2013-06-12 16:06:00,69.9,58.0,29.92,NW,324,1.8,5.0,66,0.00,OVC,,0.12,149.0,WeatherDisplay:10.37,2013-06-12 21:06:00,
2013-06-12 16:11:00,70.0,58.1,29.92,NNW,348,5.7,9.2,66,0.00,OVC,,0.12,155.0,WeatherDisplay:10.37,2013-06-12 21:11:00,
2013-06-12 16:16:00,70.2,57.9,29.92,NNW,330,4.2,8.1,65,0.00,OVC,,0.12,167.0,WeatherDisplay:10.37,2013-06-12 21:16:00,
2013-06-12 16:21:00,70.3,58.0,29.92,North,5,3.9,6.0,65,0.00,OVC,,0.12,199.0,WeatherDisplay:10.37,2013-06-12 21:21:00,
2013-06-12 16:27:00,70.5,58.2,29.92,North,360,2.7,5.8,65,0.00,OVC,,0.12,199.0,WeatherDisplay:10.37,2013-06-12 21:27:00,
2013-06-12 16:32:00,70.7,58.8,29.92,NNE,17,3.9,6.0,66,0.00,OVC,,0.12,214.0,WeatherDisplay:10.37,2013-06-12 21:32:00,
2013-06-12 16:37:00,70.8,58.4,29.92,North,360,2.5,5.8,65,0.00,OVC,,0.12,206.0,WeatherDisplay:10.37,2013-06-12 21:37:00,
2013-06-12 16:42:00,71.0,58.6,29.92,NNW,329,2.7,5.0,65,0.00,OVC,,0.12,195.0,WeatherDisplay:10.37,2013-06-12 21:42:00,
2013-06-12 16:47:00,71.1,58.7,29.92,NNE,13,3.1,6.9,65,0.00,OVC,,0.12,197.0,WeatherDisplay:10.37,2013-06-12 21:47:00,
2013-06-12 16:52:00,71.2,58.8,29.92,NNW,328,1.3,4.0,65,0.00,OVC,,0.12,218.0,WeatherDisplay:10.37,2013-06-12 21:52:00,
2013-06-12 16:57:00,71.4,59.0,29.92,North,360,2.7,6.0,65,0.00,OVC,,0.12,234.0,WeatherDisplay:10.37,2013-06-12 21:57:00,
2013-06-12 17:02:00,71.6,59.6,29.92,NNW,333,2.1,5.0,66,0.00,OVC,,0.12,227.0,WeatherDisplay:10.37,2013-06-12 22:02:00,
2013-06-12 17:07:00,71.7,59.7,29.92,NNW,346,2.3,7.0,66,0.00,OVC,,0.12,192.0,WeatherDisplay:10.37,2013-06-12 22:07:00,
2013-06-12 17:12:00,71.8,59.8,29.92,NW,316,1.5,5.0,66,0.00,OVC,,0.12,176.0,WeatherDisplay:10.37,2013-06-12 22:12:00,
2013-06-12 17:17:00,71.9,59.5,29.92,NW,313,5.8,11.5,65,0.00,OVC,,0.12,179.0,WeatherDisplay:10.37,2013-06-12 22:17:00,
2013-06-12 17:22:00,71.9,59.5,29.92,NNW,337,3.2,6.9,65,0.00,OVC,,0.12,172.0,WeatherDisplay:10.37,2013-06-12 22:22:00,
2013-06-12 17:27:00,72.0,59.2,29.92,NNW,341,4.1,8.1,64,0.00,OVC,,0.12,149.0,WeatherDisplay:10.37,2013-06-12 22:27:00,
2013-06-12 17:32:00,71.9,59.1,29.92,NW,321,6.0,9.0,64,0.00,OVC,,0.12,123.0,WeatherDisplay:10.37,2013-06-12 22:32:00,
2013-06-12 17:37:00,71.6,59.2,29.92,NW,325,3.3,6.0,65,0.00,OVC,,0.12,113.0,WeatherDisplay:10.37,2013-06-12 22:37:00,
2013-06-12 17:42:00,71.4,59.4,29.92,NW,317,5.5,11.0,66,0.00,OVC,,0.12,111.0,WeatherDisplay:10.37,2013-06-12 22:42:00,
2013-06-12 17:47:00,71.2,59.7,29.92,NNW,346,6.4,10.0,67,0.00,OVC,,0.12,114.0,WeatherDisplay:10.37,2013-06-12 22:47:00,
2013-06-12 17:52:00,71.0,59.9,29.92,NNW,334,2.6,6.0,68,0.00,OVC,,0.12,104.0,WeatherDisplay:10.37,2013-06-12 22:52:00,
2013-06-12 17:57:00,70.8,59.7,29.92,NW,324,3.2,10.0,68,0.00,OVC,,0.12,102.0,WeatherDisplay:10.37,2013-06-12 22:57:00,
2013-06-12 18:02:00,70.7,59.6,29.92,WNW,303,4.0,12.0,68,0.00,CLR,,0.12,120.0,WeatherDisplay:10.37,2013-06-12 23:02:00,
2013-06-12 18:07:00,70.7,59.2,29.92,NNW,348,4.7,8.1,67,0.00,CLR,,0.12,135.0,WeatherDisplay:10.37,2013-06-12 23:07:00,
2013-06-12 18:12:00,70.8,59.3,29.92,North,5,4.0,8.0,67,0.00,CLR,,0.12,151.0,WeatherDisplay:10.37,2013-06-12 23:12:00,
2013-06-12 18:17:00,70.9,59.0,29.92,NW,321,4.8,7.0,66,0.00,CLR,,0.12,188.0,WeatherDisplay:10.37,2013-06-12 23:17:00,
2013-06-12 18:22:00,71.0,59.1,29.92,NW,305,4.1,7.0,66,0.00,CLR,,0.12,211.0,WeatherDisplay:10.37,2013-06-12 23:22:00,
2013-06-12 18:27:00,71.2,59.3,29.92,NNE,17,2.3,5.0,66,0.00,CLR,,0.12,241.0,WeatherDisplay:10.37,2013-06-12 23:27:00,
2013-06-12 18:32:00,71.5,59.1,29.93,WNW,288,3.4,6.0,65,0.00,CLR,,0.12,209.0,WeatherDisplay:10.37,2013-06-12 23:32:00,
2013-06-12 18:37:00,71.6,59.2,29.93,NNW,334,3.8,11.5,65,0.00,CLR,,0.12,181.0,WeatherDisplay:10.37,2013-06-12 23:37:00,
2013-06-12 18:42:00,71.6,58.8,29.93,NW,318,1.7,3.5,64,0.00,CLR,,0.12,165.0,WeatherDisplay:10.37,2013-06-12 23:42:00,
2013-06-12 18:47:00,71.6,58.3,29.93,NW,325,4.3,8.1,63,0.00,CLR,,0.12,269.0,WeatherDisplay:10.37,2013-06-12 23:47:00,
2013-06-12 18:52:00,72.0,58.3,29.93,NW,316,4.2,6.0,62,0.00,CLR,,0.12,246.0,WeatherDisplay:10.37,2013-06-12 23:52:00,
2013-06-12 18:57:00,72.2,58.5,29.93,NW,306,2.7,8.1,62,0.00,CLR,,0.12,142.0,WeatherDisplay:10.37,2013-06-12 23:57:00,
2013-06-12 19:02:00,71.9,58.2,29.93,NNW,329,2.5,6.0,62,0.00,FEW,,0.12,123.0,WeatherDisplay:10.37,2013-06-13 00:02:00,
2013-06-12 19:07:00,71.8,58.1,29.93,WNW,302,4.3,6.0,62,0.00,FEW,,0.12,251.0,WeatherDisplay:10.37,2013-06-13 00:07:00,
2013-06-12 19:12:00,72.0,57.8,29.94,North,5,3.1,6.0,61,0.00,FEW,,0.12,167.0,WeatherDisplay:10.37,2013-06-13 00:12:00,
2013-06-12 19:17:00,72.1,57.9,29.94,NW,326,2.7,8.1,61,0.00,FEW,,0.12,244.0,WeatherDisplay:10.37,2013-06-13 00:17:00,
2013-06-12 19:22:00,72.0,58.3,29.94,NW,323,1.0,3.0,62,0.00,FEW,,0.12,83.0,WeatherDisplay:10.37,2013-06-13 00:22:00,
2013-06-12 19:27:00,71.7,58.0,29.94,NNW,340,3.4,9.0,62,0.00,FEW,,0.12,190.0,WeatherDisplay:10.37,2013-06-13 00:27:00,
2013-06-12 19:32:00,71.6,58.3,29.94,North,360,2.6,6.0,63,0.00,FEW,,0.12,188.0,WeatherDisplay:10.37,2013-06-13 00:32:00,
2013-06-12 19:37:00,71.7,58.4,29.94,NW,313,3.1,9.0,63,0.00,FEW,,0.12,151.0,WeatherDisplay:10.37,2013-06-13 00:37:00,
2013-06-12 19:42:00,71.6,58.3,29.94,NNW,343,1.3,4.0,63,0.00,FEW,,0.12,84.0,WeatherDisplay:10.37,2013-06-13 00:42:00,
2013-06-12 19:47:00,71.3,58.1,29.94,NW,315,3.6,6.0,63,0.00,FEW,,0.12,132.0,WeatherDisplay:10.37,2013-06-13 00:47:00,
2013-06-12 19:52:00,71.3,58.1,29.94,NW,310,3.0,8.0,63,0.00,FEW,,0.12,118.0,WeatherDisplay:10.37,2013-06-13 00:52:00,
2013-06-12 19:57:00,71.3,58.1,29.94,NNW,332,3.7,8.1,63,0.00,FEW,,0.12,109.0,WeatherDisplay:10.37,2013-06-13 00:57:00,
2013-06-12 20:02:00,71.1,57.9,29.95,North,350,4.1,7.0,63,0.00,CLR,,0.12,60.0,WeatherDisplay:10.37,2013-06-13 01:02:00,
2013-06-12 20:07:00,70.9,57.7,29.95,NNW,340,3.3,5.8,63,0.00,CLR,,0.12,65.0,WeatherDisplay:10.37,2013-06-13 01:07:00,
2013-06-12 20:12:00,70.6,57.8,29.95,NNE,24,2.8,5.0,64,0.00,CLR,,0.12,42.0,WeatherDisplay:10.37,2013-06-13 01:12:00,
2013-06-12 20:17:00,70.1,57.8,29.95,NW,321,5.1,8.1,65,0.00,CLR,,0.12,40.0,WeatherDisplay:10.37,2013-06-13 01:17:00,
2013-06-12 20:22:00,69.8,57.9,29.95,NW,321,2.5,7.0,66,0.00,CLR,,0.12,30.0,WeatherDisplay:10.37,2013-06-13 01:22:00,
2013-06-12 20:27:00,69.5,57.6,29.96,NNW,338,2.4,5.0,66,0.00,CLR,,0.12,19.0,WeatherDisplay:10.37,2013-06-13 01:27:00,
2013-06-12 20:32:00,69.1,57.3,29.96,NNW,346,3.9,7.0,66,0.00,CLR,,0.12,18.0,WeatherDisplay:10.37,2013-06-13 01:32:00,
2013-06-12 20:37:00,68.8,57.4,29.96,NW,317,2.8,5.8,67,0.00,CLR,,0.12,16.0,WeatherDisplay:10.37,2013-06-13 01:37:00,
2013-06-12 20:42:00,68.6,56.8,29.96,NW,324,1.2,6.0,66,0.00,CLR,,0.12,14.0,WeatherDisplay:10.37,2013-06-13 01:42:00,
2013-06-12 20:47:00,68.5,56.3,29.96,North,360,2.6,6.9,65,0.00,CLR,,0.12,12.0,WeatherDisplay:10.37,2013-06-13 01:47:00,
2013-06-12 20:52:00,68.4,55.3,29.97,NW,318,4.4,9.0,63,0.00,CLR,,0.12,9.0,WeatherDisplay:10.37,2013-06-13 01:52:00,
2013-06-12 20:57:00,68.3,55.2,29.97,North,355,2.7,5.0,63,0.00,CLR,,0.12,7.0,WeatherDisplay:10.37,2013-06-13 01:57:00,
2013-06-12 21:02:00,68.0,54.9,29.98,NE,36,2.4,6.0,63,0.00,CLR,,0.12,5.0,WeatherDisplay:10.37,2013-06-13 02:02:00,
2013-06-12 21:07:00,67.8,54.7,29.98,NNW,340,1.8,3.5,63,0.00,CLR,,0.12,5.0,WeatherDisplay:10.37,2013-06-13 02:07:00,
2013-06-12 21:12:00,67.6,54.6,29.98,North,360,2.1,4.0,63,0.00,CLR,,0.12,0.0,WeatherDisplay:10.37,2013-06-13 02:12:00,
2013-06-12 21:17:00,67.3,54.3,29.98,North,360,2.4,6.0,63,0.00,CLR,,0.12,0.0,WeatherDisplay:10.37,2013-06-13 02:17:00,
2013-06-12 21:22:00,67.1,54.5,29.98,North,355,2.1,6.0,64,0.00,CLR,,0.12,0.0,WeatherDisplay:10.37,2013-06-13 02:22:00,
2013-06-12 21:27:00,66.9,54.3,29.98,NNW,333,2.1,6.0,64,0.00,CLR,,0.12,0.0,WeatherDisplay:10.37,2013-06-13 02:27:00,
2013-06-12 21:32:00,66.6,54.5,29.99,North,355,0.9,3.5,65,0.00,CLR,,0.12,0.0,WeatherDisplay:10.37,2013-06-13 02:32:00,
2013-06-12 21:37:00,66.4,54.3,29.99,NNW,330,0.9,4.0,65,0.00,CLR,,0.12,0.0,WeatherDisplay:10.37,2013-06-13 02:37:00,
2013-06-12 21:42:00,66.1,54.4,29.99,NNW,334,1.5,4.6,66,0.00,CLR,,0.12,0.0,WeatherDisplay:10.37,2013-06-13 02:42:00,
2013-06-12 21:47:00,65.8,54.5,29.99,NNW,342,1.1,4.0,67,0.00,CLR,,0.12,0.0,WeatherDisplay:10.37,2013-06-13 02:47:00,
2013-06-12 21:52:00,65.6,54.3,30.00,NNE,22,1.1,3.5,67,0.00,CLR,,0.12,0.0,WeatherDisplay:10.37,2013-06-13 02:52:00,
2013-06-12 21:57:00,65.6,54.3,30.00,NW,314,1.3,5.0,67,0.00,CLR,,0.12,0.0,WeatherDisplay:10.37,2013-06-13 02:57:00,
2013-06-12 22:02:00,65.5,53.8,30.01,NW,316,2.5,6.0,66,0.00,CLR,,0.12,0.0,WeatherDisplay:10.37,2013-06-13 03:02:00,
2013-06-12 22:07:00,65.4,53.7,30.01,NW,321,2.3,6.9,66,0.00,CLR,,0.12,0.0,WeatherDisplay:10.37,2013-06-13 03:07:00,
2013-06-12 22:12:00,65.4,53.7,30.01,NNW,344,3.7,8.0,66,0.00,CLR,,0.12,0.0,WeatherDisplay:10.37,2013-06-13 03:12:00,
2013-06-12 22:17:00,65.2,53.6,30.01,NW,304,3.8,7.0,66,0.00,CLR,,0.12,0.0,WeatherDisplay:10.37,2013-06-13 03:17:00,
2013-06-12 22:22:00,65.1,53.9,30.02,NNW,333,3.7,7.0,67,0.00,CLR,,0.12,0.0,WeatherDisplay:10.37,2013-06-13 03:22:00,
2013-06-12 22:27:00,64.9,53.7,30.02,NW,316,2.0,5.8,67,0.00,CLR,,0.12,0.0,WeatherDisplay:10.37,2013-06-13 03:27:00,
2013-06-12 22:32:00,64.9,53.3,30.02,North,355,4.0,7.0,66,0.00,CLR,,0.12,0.0,WeatherDisplay:10.37,2013-06-13 03:32:00,
2013-06-12 22:37:00,64.8,53.6,30.02,NNW,346,2.4,5.0,67,0.00,CLR,,0.12,0.0,WeatherDisplay:10.37,2013-06-13 03:37:00,
2013-06-12 22:42:00,64.5,53.7,30.02,NNW,341,0.9,3.5,68,0.00,CLR,,0.12,0.0,WeatherDisplay:10.37,2013-06-13 03:42:00,
2013-06-12 22:47:00,64.1,53.7,30.02,North,5,2.2,6.0,69,0.00,CLR,,0.12,0.0,WeatherDisplay:10.37,2013-06-13 03:47:00,
2013-06-12 22:52:00,64.1,53.3,30.02,NNE,19,4.2,7.0,68,0.00,CLR,,0.12,0.0,WeatherDisplay:10.37,2013-06-13 03:52:00,
2013-06-12 22:57:00,64.0,53.2,30.02,NE,39,1.9,3.5,68,0.00,CLR,,0.12,0.0,WeatherDisplay:10.37,2013-06-13 03:57:00,
2013-06-12 23:01:00,63.8,53.0,30.02,North,5,3.2,6.0,68,0.00,CLR,,0.12,0.0,WeatherDisplay:10.37,2013-06-13 04:01:00,
2013-06-12 23:02:00,63.8,53.0,30.02,NNW,346,1.8,5.0,68,0.00,CLR,,0.12,0.0,WeatherDisplay:10.37,2013-06-13 04:02:00,
2013-06-12 23:03:00,63.7,52.9,30.02,NNW,338,2.0,5.0,68,0.00,CLR,,0.12,0.0,WeatherDisplay:10.37,2013-06-13 04:03:00,
2013-06-12 23:04:00,63.7,53.3,30.02,North,11,2.4,4.0,69,0.00,CLR,,0.12,0.0,WeatherDisplay:10.37,2013-06-13 04:04:00,
2013-06-12 23:05:00,63.6,52.8,30.02,NNW,348,4.1,7.0,68,0.00,CLR,,0.12,0.0,WeatherDisplay:10.37,2013-06-13 04:05:00,
2013-06-12 23:10:00,63.4,53.0,30.02,North,355,2.3,4.0,69,0.00,CLR,,0.12,0.0,WeatherDisplay:10.37,2013-06-13 04:10:00,
2013-06-12 23:15:00,63.2,52.5,30.02,North,5,2.8,4.0,68,0.00,CLR,,0.12,0.0,WeatherDisplay:10.37,2013-06-13 04:15:00,
2013-06-12 23:20:00,63.1,52.4,30.03,North,355,3.6,8.1,68,0.00,CLR,,0.12,0.0,WeatherDisplay:10.37,2013-06-13 04:20:00,
2013-06-12 23:25:00,62.9,52.2,30.02,NNW,339,1.7,3.5,68,0.00,CLR,,0.12,0.0,WeatherDisplay:10.37,2013-06-13 04:25:00,
2013-06-12 23:30:00,62.6,52.3,30.02,NNE,21,0.5,4.0,69,0.00,CLR,,0.12,0.0,WeatherDisplay:10.37,2013-06-13 04:30:00,
2013-06-12 23:35:00,62.4,52.5,30.03,NNW,342,1.8,3.5,70,0.00,CLR,,0.12,0.0,WeatherDisplay:10.37,2013-06-13 04:35:00,
2013-06-12 23:40:00,62.2,52.3,30.03,NNW,336,2.4,5.0,70,0.00,CLR,,0.12,0.0,WeatherDisplay:10.37,2013-06-13 04:40:00,
2013-06-12 23:45:00,62.0,52.1,30.03,NNE,14,1.9,4.0,70,0.00,CLR,,0.12,0.0,WeatherDisplay:10.37,2013-06-13 04:45:00,
2013-06-12 23:50:00,61.9,51.6,30.03,NW,319,1.1,3.5,69,0.00,CLR,,0.12,0.0,WeatherDisplay:10.37,2013-06-13 04:50:00,
2013-06-12 23:55:00,61.8,51.9,30.04,North,355,2.0,4.0,70,0.00,CLR,,0.12,0.0,WeatherDisplay:10.37,2013-06-13 04:55:00,